Time;durP1;ratioP1;P1;durP2;ratioP2;P2;SDS_P1;SDS_P2;PMS_P1;PMS_P2;Temp;Humidity;BMP_temperature;BMP_pressure;BME280_temperature;BME280_humidity;BME280_pressure;Samples;Min_cycle;Max_cycle;Signal;HPM_P1;HPM_P2
2022/12/20 00:01:32;;;;;;;5.47;4.45;;;10.40;99.90;;;;;;4975127;28;95733;-75
2022/12/20 00:04:02;;;;;;;6.65;4.70;;;10.40;99.90;;;;;;4975435;28;93160;-75
2022/12/20 00:06:29;;;;;;;4.88;4.47;;;10.40;99.90;;;;;;4976879;28;92386;-75
2022/12/20 00:08:58;;;;;;;6.68;4.90;;;10.40;99.90;;;;;;4975228;28;92423;-75
2022/12/20 00:11:27;;;;;;;5.35;4.47;;;10.40;99.90;;;;;;4976181;28;93512;-75
2022/12/20 00:13:55;;;;;;;8.52;5.15;;;10.40;99.90;;;;;;4975083;28;93066;-75
2022/12/20 00:16:27;;;;;;;5.93;4.60;;;10.30;99.90;;;;;;4976271;28;92536;-75
2022/12/20 00:18:56;;;;;;;5.63;4.50;;;10.30;99.90;;;;;;4975280;28;92431;-76
2022/12/20 00:21:24;;;;;;;5.70;4.32;;;10.30;99.90;;;;;;4973282;28;98318;-76
2022/12/20 00:23:52;;;;;;;7.05;4.60;;;10.30;99.90;;;;;;4975998;28;95427;-76
2022/12/20 00:26:22;;;;;;;6.93;4.43;;;10.20;99.90;;;;;;4974920;28;92928;-76
2022/12/20 00:28:49;;;;;;;6.18;4.75;;;10.20;99.90;;;;;;4976363;28;92811;-76
2022/12/20 00:31:18;;;;;;;5.90;4.50;;;10.20;99.90;;;;;;4975734;28;99139;-76
2022/12/20 00:33:48;;;;;;;4.47;4.07;;;10.20;99.90;;;;;;4975700;28;92935;-76
2022/12/20 00:36:17;;;;;;;7.07;5.03;;;10.20;99.90;;;;;;4974848;28;92525;-75
2022/12/20 00:38:49;;;;;;;5.30;4.22;;;10.20;99.90;;;;;;4974895;28;91710;-76
2022/12/20 00:41:21;;;;;;;5.82;4.72;;;10.30;99.90;;;;;;4974602;28;95951;-76
2022/12/20 00:43:50;;;;;;;5.25;4.50;;;10.30;99.90;;;;;;4958467;28;95249;-75
2022/12/20 00:46:19;;;;;;;6.65;4.88;;;10.30;99.90;;;;;;4957331;28;94805;-75
2022/12/20 00:48:46;;;;;;;4.80;4.32;;;10.40;99.90;;;;;;4975767;28;92494;-76
2022/12/20 00:51:16;;;;;;;4.80;3.78;;;10.50;99.90;;;;;;4957933;28;103339;-76
2022/12/20 00:53:44;;;;;;;4.85;3.90;;;10.50;99.90;;;;;;4975251;28;92930;-75
2022/12/20 00:56:12;;;;;;;4.80;4.18;;;10.50;99.90;;;;;;4973408;28;92762;-76
2022/12/20 00:58:41;;;;;;;3.92;3.47;;;10.60;99.90;;;;;;4974452;28;92619;-76
2022/12/20 01:01:26;;;;;;;4.72;3.65;;;10.60;99.90;;;;;;4974285;28;96226;-76
2022/12/20 01:03:53;;;;;;;7.20;3.97;;;10.70;99.90;;;;;;4975791;28;91699;-75
2022/12/20 01:06:22;;;;;;;6.10;4.03;;;10.60;99.90;;;;;;4958066;28;92446;-75
2022/12/20 01:08:50;;;;;;;8.60;4.30;;;10.60;99.90;;;;;;4974328;28;92558;-76
2022/12/20 01:11:19;;;;;;;4.63;4.00;;;10.60;99.90;;;;;;4974159;28;95704;-76
2022/12/20 01:13:49;;;;;;;4.72;4.10;;;10.60;99.90;;;;;;4973725;28;98501;-76
2022/12/20 01:16:26;;;;;;;6.07;4.00;;;10.60;99.90;;;;;;4958213;28;92505;-76
2022/12/20 01:18:53;;;;;;;5.95;4.53;;;10.60;99.90;;;;;;4957858;28;92444;-76
2022/12/20 01:21:23;;;;;;;5.95;4.53;;;10.60;99.90;;;;;;4975519;28;93612;-75
2022/12/20 01:23:50;;;;;;;5.85;4.07;;;10.60;99.90;;;;;;4973873;28;95917;-76
2022/12/20 01:26:22;;;;;;;6.05;4.28;;;10.60;99.90;;;;;;4974176;28;92569;-76
2022/12/20 01:28:56;;;;;;;5.55;4.30;;;10.60;99.90;;;;;;4974329;28;91812;-76
2022/12/20 01:31:24;;;;;;;;;;;10.60;99.90;;;;;;4975326;28;92930;-75
2022/12/20 01:33:51;;;;;;;5.13;3.92;;;10.50;99.90;;;;;;4958674;28;95246;-76
2022/12/20 01:36:25;;;;;;;5.78;3.80;;;10.50;99.90;;;;;;4973119;28;94895;-76
2022/12/20 01:38:56;;;;;;;;;;;10.50;99.90;;;;;;4974612;28;92469;-75
2022/12/20 01:41:24;;;;;;;4.80;4.00;;;10.50;99.90;;;;;;4976154;28;94442;-76
2022/12/20 01:44:00;;;;;;;4.53;3.95;;;10.40;99.90;;;;;;4974543;28;93059;-76
2022/12/20 01:46:30;;;;;;;5.45;4.00;;;10.40;99.90;;;;;;4975660;28;92611;-76
2022/12/20 01:49:22;;;;;;;5.00;4.53;;;10.50;99.90;;;;;;4975351;28;92820;-75
2022/12/20 01:51:56;;;;;;;4.18;3.78;;;10.50;99.90;;;;;;4973815;28;93340;-75
2022/12/20 01:54:25;;;;;;;;;;;10.40;99.90;;;;;;4974135;28;95612;-75
2022/12/20 01:56:58;;;;;;;8.38;4.60;;;10.40;99.90;;;;;;4975023;28;93052;-76
2022/12/20 01:59:27;;;;;;;4.30;3.90;;;10.40;99.90;;;;;;4973974;28;92491;-76
2022/12/20 02:01:58;;;;;;;5.30;3.95;;;10.40;99.90;;;;;;4972300;28;98507;-75
2022/12/20 02:04:25;;;;;;;4.43;3.92;;;10.50;99.90;;;;;;4973674;28;98051;-75
2022/12/20 02:06:53;;;;;;;5.22;4.20;;;10.50;99.90;;;;;;4974889;28;92549;-76
2022/12/20 02:09:20;;;;;;;4.30;3.90;;;10.50;99.90;;;;;;4978461;28;92436;-76
2022/12/20 02:12:03;;;;;;;4.82;3.63;;;10.50;99.90;;;;;;4978018;28;93484;-76
2022/12/20 02:14:49;;;;;;;4.55;4.10;;;10.50;99.90;;;;;;4961176;28;95578;-75
2022/12/20 02:17:23;;;;;;;4.57;3.80;;;10.50;99.90;;;;;;4978528;28;92459;-75
2022/12/20 02:20:27;;;;;;;5.77;4.27;;;10.50;99.90;;;;;;4978719;28;92173;-76
2022/12/20 02:23:17;;;;;;;4.88;4.07;;;10.60;99.90;;;;;;4976736;28;93189;-75
2022/12/20 02:25:59;;;;;;;6.13;3.80;;;10.60;99.90;;;;;;4966600;28;95728;-76
2022/12/20 02:28:38;;;;;;;3.70;3.40;;;10.60;99.90;;;;;;4975899;28;94869;-75
2022/12/20 02:31:11;;;;;;;4.10;3.70;;;10.60;99.90;;;;;;4975792;28;92601;-75
2022/12/20 02:33:45;;;;;;;5.53;3.80;;;10.60;99.90;;;;;;4960262;28;96107;-76
2022/12/20 02:36:15;;;;;;;5.38;3.97;;;10.60;99.90;;;;;;4976155;28;95465;-75
2022/12/20 02:38:43;;;;;;;4.30;3.90;;;10.60;99.90;;;;;;4976646;28;92426;-75
2022/12/20 02:41:19;;;;;;;4.80;3.80;;;10.60;99.90;;;;;;4960036;28;92530;-76
2022/12/20 02:46:37;;;;;;;4.40;3.60;;;10.70;99.90;;;;;;4976596;28;95493;-75
2022/12/20 02:49:11;;;;;;;7.97;4.03;;;10.60;99.90;;;;;;4960116;28;92537;-76
2022/12/20 02:51:42;;;;;;;4.30;3.88;;;10.70;99.90;;;;;;4977963;28;92480;-75
2022/12/20 02:54:10;;;;;;;4.35;3.45;;;10.70;99.90;;;;;;4974498;28;98141;-76
2022/12/20 02:57:22;;;;;;;6.95;3.78;;;10.70;99.90;;;;;;4959813;28;97837;-76
2022/12/20 03:00:05;;;;;;;3.97;3.67;;;10.80;99.90;;;;;;4974247;28;92556;-76
2022/12/20 03:03:21;;;;;;;6.05;4.05;;;10.70;99.90;;;;;;4976215;28;92560;-75
2022/12/20 03:05:24;;;;;;;4.03;3.60;;;10.70;99.90;;;;;;4975586;28;95967;-75
2022/12/20 03:07:52;;;;;;;5.25;3.55;;;10.70;99.90;;;;;;4977199;28;92970;-75
2022/12/20 03:10:22;;;;;;;6.20;4.10;;;10.80;99.90;;;;;;4975995;28;92509;-75
2022/12/20 03:12:49;;;;;;;4.50;3.88;;;10.80;99.90;;;;;;4944035;28;91770;-76
2022/12/20 03:15:17;;;;;;;4.32;3.55;;;10.80;99.90;;;;;;4943108;28;96044;-75
2022/12/20 03:17:45;;;;;;;6.10;3.70;;;10.80;99.90;;;;;;4974400;28;95571;-76
2022/12/20 03:20:16;;;;;;;5.13;4.10;;;10.80;99.90;;;;;;4958464;28;94874;-75
2022/12/20 03:22:43;;;;;;;5.60;4.03;;;10.80;99.90;;;;;;4976199;28;92431;-75
2022/12/20 03:25:10;;;;;;;6.82;4.57;;;10.80;99.90;;;;;;4959174;28;96353;-75
2022/12/20 03:27:38;;;;;;;5.32;4.43;;;10.80;99.90;;;;;;4975529;28;95379;-76
2022/12/20 03:30:06;;;;;;;5.70;4.32;;;10.80;99.90;;;;;;4975556;28;92518;-75
2022/12/20 03:32:36;;;;;;;4.60;4.05;;;10.80;99.90;;;;;;4975277;28;92490;-75
2022/12/20 03:35:03;;;;;;;7.40;4.25;;;10.80;99.90;;;;;;4959046;28;95804;-75
2022/12/20 03:37:35;;;;;;;5.90;4.35;;;10.70;99.90;;;;;;4975786;28;95378;-75
2022/12/20 03:40:04;;;;;;;4.13;3.53;;;10.70;99.90;;;;;;4943668;28;92487;-75
2022/12/20 03:42:32;;;;;;;5.40;4.13;;;10.70;99.90;;;;;;4943340;28;92479;-76
2022/12/20 03:44:59;;;;;;;5.75;4.60;;;10.70;99.90;;;;;;4973744;28;98433;-75
2022/12/20 03:47:28;;;;;;;4.45;4.03;;;10.70;99.90;;;;;;4975064;28;97716;-76
2022/12/20 03:49:56;;;;;;;6.35;3.83;;;10.70;99.90;;;;;;4976877;28;92450;-76
2022/12/20 03:52:23;;;;;;;4.10;3.67;;;10.70;99.90;;;;;;4975306;28;92578;-76
2022/12/20 03:54:50;;;;;;;5.28;4.35;;;10.70;99.90;;;;;;4958745;28;95756;-74
2022/12/20 03:57:20;;;;;;;5.80;3.95;;;10.70;99.90;;;;;;4974755;28;95547;-75
2022/12/20 03:59:49;;;;;;;4.63;4.22;;;10.70;99.90;;;;;;4975162;28;92463;-75
2022/12/20 04:02:18;;;;;;;5.78;4.20;;;10.70;99.90;;;;;;4975410;28;91843;-75
2022/12/20 04:04:45;;;;;;;5.50;3.88;;;10.70;99.90;;;;;;4958757;28;95926;-75
2022/12/20 04:07:13;;;;;;;6.50;4.00;;;10.70;99.90;;;;;;4974854;28;95576;-75
2022/12/20 04:09:44;;;;;;;5.10;4.38;;;10.70;99.90;;;;;;4958169;28;95116;-75
2022/12/20 04:12:12;;;;;;;5.78;4.07;;;10.70;99.90;;;;;;4974899;28;92567;-75
2022/12/20 04:14:39;;;;;;;5.93;4.05;;;10.70;99.90;;;;;;4974787;28;94504;-75
2022/12/20 04:17:06;;;;;;;6.18;3.97;;;10.70;99.90;;;;;;4926458;28;95197;-75
2022/12/20 04:19:34;;;;;;;4.05;3.38;;;10.70;99.90;;;;;;4958955;28;92533;-75
2022/12/20 04:22:03;;;;;;;6.28;4.78;;;10.70;99.90;;;;;;4974920;28;93048;-75
2022/12/20 04:24:44;;;;;;;5.57;4.25;;;10.70;99.90;;;;;;4960357;28;95716;-75
2022/12/20 04:27:21;;;;;;;4.80;4.18;;;10.70;99.90;;;;;;4960045;28;95458;-75
2022/12/20 04:29:49;;;;;;;5.05;3.72;;;10.70;99.90;;;;;;4974705;28;92471;-75
2022/12/20 04:32:18;;;;;;;6.13;4.35;;;10.70;99.90;;;;;;4974240;28;92514;-75
2022/12/20 04:34:45;;;;;;;5.00;4.22;;;10.70;99.90;;;;;;4973137;28;98619;-75
2022/12/20 04:37:12;;;;;;;4.00;3.60;;;10.80;99.90;;;;;;4958247;28;97712;-75
2022/12/20 04:39:50;;;;;;;4.85;4.13;;;10.80;99.90;;;;;;4974805;28;92491;-75
2022/12/20 04:42:20;;;;;;;5.30;4.10;;;10.80;99.90;;;;;;4958534;28;92564;-75
2022/12/20 04:44:48;;;;;;;6.85;4.50;;;10.80;99.90;;;;;;4974539;28;95530;-75
2022/12/20 04:47:20;;;;;;;6.68;4.07;;;10.80;99.90;;;;;;4958728;28;96028;-75
2022/12/20 04:49:47;;;;;;;5.70;4.28;;;10.80;99.90;;;;;;4974904;28;92578;-75
2022/12/20 04:55:00;;;;;;;5.82;3.90;;;10.80;99.90;;;;;;4974269;28;95597;-75
2022/12/20 04:57:30;;;;;;;7.03;4.57;;;10.80;99.90;;;;;;4958497;28;95842;-75
2022/12/20 04:59:58;;;;;;;5.38;4.68;;;10.80;99.90;;;;;;4973065;28;94967;-75
2022/12/20 05:02:25;;;;;;;4.63;4.22;;;10.70;99.90;;;;;;4957901;28;92572;-75
2022/12/20 05:04:57;;;;;;;6.13;4.30;;;10.70;99.90;;;;;;4974171;28;95640;-75
2022/12/20 05:07:25;;;;;;;6.82;4.43;;;10.70;99.90;;;;;;4957665;28;95988;-75
2022/12/20 05:09:54;;;;;;;5.72;4.40;;;10.70;99.90;;;;;;4958641;28;92626;-75
2022/12/20 05:12:21;;;;;;;6.20;4.30;;;10.80;99.90;;;;;;4957929;28;92541;-75
2022/12/20 05:14:48;;;;;;;6.30;4.55;;;10.80;99.90;;;;;;4957884;28;95912;-75
2022/12/20 05:17:18;;;;;;;4.97;4.50;;;10.80;99.90;;;;;;4974299;28;95271;-75
2022/12/20 05:19:46;;;;;;;5.30;4.50;;;10.90;99.90;;;;;;4974220;28;92979;-75
2022/12/20 05:27:59;;;;;;;4.65;4.15;;;11.00;99.90;;;;;;4960805;28;98549;-75
2022/12/20 05:30:31;;;;;;;4.22;3.55;;;11.00;99.90;;;;;;4973637;28;92918;-75
2022/12/20 05:32:58;;;;;;;6.20;4.13;;;11.00;99.90;;;;;;4974101;28;92617;-75
2022/12/20 05:35:26;;;;;;;5.03;4.07;;;11.10;99.90;;;;;;4941189;28;94697;-75
2022/12/20 05:38:00;;;;;;;7.03;3.60;;;11.10;99.90;;;;;;4973883;28;95581;-75
2022/12/20 05:40:27;;;;;;;4.28;3.88;;;11.20;99.90;;;;;;4957778;28;92572;-75
2022/12/20 05:42:54;;;;;;;3.72;3.42;;;11.20;99.90;;;;;;4961370;28;91865;-75
2022/12/20 05:45:28;;;;;;;7.18;3.67;;;11.30;99.90;;;;;;4977185;28;94409;-75
2022/12/20 05:48:01;;;;;;;4.68;3.72;;;11.30;99.90;;;;;;4945992;28;95339;-75
2022/12/20 05:50:31;;;;;;;3.90;3.60;;;11.30;99.90;;;;;;4960239;28;95354;-75
2022/12/20 05:53:25;;;;;;;4.10;3.70;;;11.40;99.90;;;;;;4975089;28;92462;-75
2022/12/20 05:55:55;;;;;;;4.00;3.55;;;11.40;99.90;;;;;;4978432;28;93389;-75
2022/12/20 05:58:28;;;;;;;5.75;3.80;;;11.30;99.90;;;;;;4961072;28;95875;-75
2022/12/20 06:01:05;;;;;;;4.25;3.50;;;11.40;99.90;;;;;;4962020;28;92396;-75
2022/12/20 06:03:37;;;;;;;3.95;3.55;;;11.40;99.90;;;;;;4976904;28;93348;-75
2022/12/20 06:06:09;;;;;;;5.00;4.63;;;11.50;99.90;;;;;;4961310;28;95688;-75
2022/12/20 06:08:41;;;;;;;4.88;4.47;;;11.50;99.90;;;;;;4961284;28;95441;-75
2022/12/20 06:11:13;;;;;;;4.13;3.42;;;11.50;99.90;;;;;;4977068;28;92517;-75
2022/12/20 06:13:51;;;;;;;6.15;4.05;;;11.50;99.90;;;;;;4961988;28;92564;-75
2022/12/20 06:16:20;;;;;;;16.92;14.65;;;11.50;99.90;;;;;;4959120;28;97900;-75
2022/12/20 06:18:48;;;;;;;8.75;7.90;;;11.60;99.90;;;;;;4959825;28;98140;-76
2022/12/20 06:21:16;;;;;;;6.00;5.50;;;11.50;99.90;;;;;;4960749;28;92680;-75
2022/12/20 06:23:44;;;;;;;5.07;4.20;;;11.50;99.90;;;;;;4976846;28;92476;-75
2022/12/20 06:26:12;;;;;;;4.90;3.53;;;11.50;99.90;;;;;;4960649;28;95182;-75
2022/12/20 06:28:51;;;;;;;3.70;3.40;;;11.50;99.90;;;;;;4976383;28;95385;-75
2022/12/20 06:31:23;;;;;;;3.67;3.25;;;11.50;99.90;;;;;;4976095;28;92494;-75
2022/12/20 06:33:52;;;;;;;3.78;3.42;;;11.50;99.90;;;;;;4976746;28;91813;-75
2022/12/20 06:36:21;;;;;;;3.70;3.28;;;11.50;99.90;;;;;;4976248;28;95478;-75
2022/12/20 06:38:49;;;;;;;5.32;4.07;;;11.60;99.90;;;;;;4976277;28;95461;-75
2022/12/20 06:41:17;;;;;;;4.43;4.00;;;11.60;99.90;;;;;;4975547;28;95405;-76
2022/12/20 06:43:44;;;;;;;4.68;3.50;;;11.70;99.90;;;;;;4976386;28;92616;-75
2022/12/20 06:46:11;;;;;;;6.43;3.70;;;11.70;99.90;;;;;;4976295;28;93259;-75
2022/12/20 06:48:38;;;;;;;6.55;3.38;;;11.70;99.90;;;;;;4975881;28;95582;-75
2022/12/20 06:51:07;;;;;;;5.07;3.67;;;11.70;99.90;;;;;;4960297;28;92515;-75
2022/12/20 06:53:34;;;;;;;7.93;3.50;;;11.70;99.90;;;;;;4976039;28;92504;-75
2022/12/20 06:56:01;;;;;;;4.75;3.53;;;11.70;99.90;;;;;;4976002;28;95413;-75
2022/12/20 06:58:30;;;;;;;5.55;4.40;;;11.70;99.90;;;;;;4977619;28;93335;-75
2022/12/20 07:00:57;;;;;;;5.38;4.50;;;11.80;99.90;;;;;;4960146;28;92952;-75
2022/12/20 07:03:24;;;;;;;5.18;4.68;;;11.70;99.90;;;;;;4976178;28;92473;-75
2022/12/20 07:05:52;;;;;;;5.38;4.03;;;11.70;99.90;;;;;;4942513;28;95379;-76
2022/12/20 07:08:20;;;;;;;5.25;4.65;;;11.70;99.90;;;;;;4977227;28;95423;-76
2022/12/20 07:10:47;;;;;;;6.93;4.97;;;11.70;99.90;;;;;;4959611;28;92583;-75
2022/12/20 07:13:15;;;;;;;5.30;4.78;;;11.70;99.90;;;;;;4975995;28;92599;-75
2022/12/20 07:15:42;;;;;;;4.95;4.50;;;11.70;99.90;;;;;;4975357;28;95936;-75
2022/12/20 07:18:09;;;;;;;5.82;4.90;;;11.70;99.90;;;;;;4975769;28;95574;-75
2022/12/20 07:20:37;;;;;;;5.88;5.28;;;11.70;99.90;;;;;;4975784;28;92558;-75
2022/12/20 07:23:04;;;;;;;4.85;4.45;;;11.70;99.90;;;;;;4976095;28;91849;-75
2022/12/20 07:25:31;;;;;;;5.00;4.47;;;11.70;99.90;;;;;;4976715;28;93276;-75
2022/12/20 07:27:58;;;;;;;5.82;4.38;;;11.60;99.90;;;;;;4975349;28;95976;-76
2022/12/20 07:30:25;;;;;;;7.15;5.07;;;11.60;99.90;;;;;;4958344;28;95036;-76
2022/12/20 07:32:52;;;;;;;5.45;4.95;;;11.60;99.90;;;;;;4958852;28;92628;-74
2022/12/20 07:35:19;;;;;;;5.35;4.82;;;11.60;99.90;;;;;;4959343;28;95999;-76
2022/12/20 07:37:46;;;;;;;5.95;5.07;;;11.70;99.90;;;;;;4991759;28;95537;-76
2022/12/20 07:40:15;;;;;;;5.40;4.78;;;11.60;99.90;;;;;;4975515;28;92526;-76
2022/12/20 07:42:41;;;;;;;6.13;4.68;;;11.60;99.90;;;;;;4975389;28;92537;-76
2022/12/20 07:45:14;;;;;;;6.80;5.60;;;11.60;99.90;;;;;;4959772;28;96273;-75
2022/12/20 07:47:42;;;;;;;7.57;5.90;;;11.60;99.90;;;;;;4959534;28;93075;-75
2022/12/20 07:50:10;;;;;;;5.38;4.88;;;11.60;99.90;;;;;;4976792;28;92455;-75
2022/12/20 07:52:40;;;;;;;6.60;6.10;;;11.60;99.90;;;;;;4959420;28;92570;-76
2022/12/20 07:55:09;;;;;;;6.07;5.32;;;11.60;99.90;;;;;;4974683;28;103404;-76
2022/12/20 07:57:52;;;;;;;6.50;5.53;;;11.60;99.90;;;;;;4975024;28;95281;-76
2022/12/20 08:00:19;;;;;;;5.57;5.07;;;11.70;99.90;;;;;;4975387;28;92435;-76
2022/12/20 08:03:10;;;;;;;9.05;6.47;;;11.60;99.90;;;;;;4976298;28;92398;-75
2022/12/20 08:05:42;;;;;;;5.97;5.38;;;11.70;99.90;;;;;;4957990;28;96049;-75
2022/12/20 08:08:09;;;;;;;7.85;7.15;;;11.70;99.90;;;;;;4976627;28;93008;-75
2022/12/20 08:10:37;;;;;;;7.95;5.90;;;11.70;99.90;;;;;;4976342;28;92460;-75
2022/12/20 08:13:06;;;;;;;5.75;4.90;;;11.70;99.90;;;;;;4975479;28;91788;-75
2022/12/20 08:15:34;;;;;;;6.20;5.30;;;11.70;99.90;;;;;;4974810;28;94244;-75
2022/12/20 08:18:02;;;;;;;7.93;7.13;;;11.70;99.90;;;;;;4975237;28;92525;-75
2022/12/20 08:20:29;;;;;;;6.95;6.30;;;11.80;99.90;;;;;;4973950;28;95772;-75
2022/12/20 08:22:56;;;;;;;5.88;5.20;;;11.80;99.90;;;;;;4958685;28;92601;-75
2022/12/20 08:25:24;;;;;;;5.88;5.22;;;11.80;99.90;;;;;;4976023;28;93257;-75
2022/12/20 08:27:52;;;;;;;5.22;4.53;;;11.90;99.90;;;;;;4974390;28;95987;-75
2022/12/20 08:30:18;;;;;;;8.20;7.40;;;11.90;99.90;;;;;;4976272;28;92492;-75
2022/12/20 08:32:46;;;;;;;5.13;4.63;;;11.90;99.90;;;;;;4973999;28;92593;-75
2022/12/20 08:35:13;;;;;;;5.53;4.85;;;12.00;99.90;;;;;;4974542;28;95897;-75
2022/12/20 08:37:40;;;;;;;7.38;4.38;;;12.00;99.90;;;;;;4974728;28;93093;-75
2022/12/20 08:40:08;;;;;;;5.57;4.78;;;12.00;99.90;;;;;;4976097;28;92475;-75
2022/12/20 08:42:35;;;;;;;6.32;4.65;;;12.00;99.90;;;;;;4976154;28;92463;-75
2022/12/20 08:45:03;;;;;;;6.22;3.83;;;12.10;99.90;;;;;;4956884;28;95963;-75
2022/12/20 08:47:30;;;;;;;4.97;4.20;;;12.10;99.90;;;;;;4958474;28;95234;-75
2022/12/20 08:49:57;;;;;;;4.10;3.70;;;12.10;99.90;;;;;;4974559;28;92482;-75
2022/12/20 08:52:24;;;;;;;4.78;4.00;;;12.20;99.90;;;;;;4975993;28;92479;-75
2022/12/20 08:54:51;;;;;;;7.90;4.10;;;12.20;99.90;;;;;;4941690;28;95790;-75
2022/12/20 08:57:18;;;;;;;5.53;3.88;;;12.20;99.90;;;;;;4975527;28;94766;-75
2022/12/20 08:59:54;;;;;;;4.70;4.05;;;12.20;99.90;;;;;;4974193;28;93201;-75
2022/12/20 09:02:40;;;;;;;8.68;5.35;;;12.20;99.90;;;;;;4975423;28;91830;-75
2022/12/20 09:05:26;;;;;;;6.72;4.13;;;12.20;99.90;;;;;;4971865;28;93675;-75
2022/12/20 09:07:53;;;;;;;6.15;3.80;;;12.20;99.90;;;;;;4956302;28;95628;-75
2022/12/20 09:10:22;;;;;;;5.22;3.88;;;12.20;99.90;;;;;;4955953;28;95089;-76
2022/12/20 09:12:52;;;;;;;4.20;3.80;;;12.20;99.90;;;;;;4957663;28;93261;-76
2022/12/20 09:15:26;;;;;;;8.60;6.00;;;12.20;99.90;;;;;;4941472;28;93315;-76
2022/12/20 09:17:54;;;;;;;4.00;3.60;;;12.20;99.90;;;;;;4975986;28;95746;-75
2022/12/20 09:20:24;;;;;;;5.70;4.50;;;12.20;99.90;;;;;;4945038;28;92500;-75
2022/12/20 09:22:51;;;;;;;3.95;3.55;;;12.20;99.90;;;;;;4960152;28;97681;-75
2022/12/20 09:25:18;;;;;;;7.25;6.65;;;12.20;99.90;;;;;;4960231;28;93326;-75
2022/12/20 09:27:45;;;;;;;5.38;4.10;;;12.30;99.90;;;;;;4960287;28;95966;-75
2022/12/20 09:30:12;;;;;;;6.47;3.35;;;12.30;99.90;;;;;;4960156;28;92528;-75
2022/12/20 09:32:39;;;;;;;4.55;3.60;;;12.30;99.90;;;;;;4960109;28;92548;-75
2022/12/20 09:35:06;;;;;;;5.43;3.40;;;12.40;99.90;;;;;;4958584;28;96637;-75
2022/12/20 09:37:33;;;;;;;4.57;4.05;;;12.40;99.90;;;;;;4975348;28;98441;-75
2022/12/20 09:40:00;;;;;;;4.20;3.30;;;12.50;99.90;;;;;;4978672;28;92445;-75
2022/12/20 09:42:29;;;;;;;6.18;3.55;;;12.50;99.90;;;;;;4961358;28;92421;-75
2022/12/20 09:45:04;;;;;;;5.70;4.38;;;12.50;99.90;;;;;;4977327;28;93306;-75
2022/12/20 09:47:34;;;;;;;6.95;4.57;;;12.60;99.90;;;;;;4978870;28;92946;-76
2022/12/20 09:50:05;;;;;;;3.75;3.40;;;12.60;99.90;;;;;;4975427;28;92450;-76
2022/12/20 09:52:44;;;;;;;6.18;3.70;;;12.60;99.90;;;;;;4977933;28;92314;-76
2022/12/20 09:55:14;;;;;;;5.70;4.10;;;12.70;99.90;;;;;;4978343;28;93217;-76
2022/12/20 09:58:14;;;;;;;5.30;3.67;;;12.60;99.90;;;;;;4978370;28;92639;-76
2022/12/20 10:00:49;;;;;;;3.70;3.33;;;12.70;99.90;;;;;;4976381;28;95027;-76
2022/12/20 10:03:30;;;;;;;4.95;4.43;;;12.60;99.90;;;;;;4977020;28;92739;-76
2022/12/20 10:06:29;;;;;;;4.88;3.65;;;12.60;99.90;;;;;;4976996;28;96007;-76
2022/12/20 10:09:03;;;;;;;4.05;3.50;;;12.60;99.90;;;;;;4976379;28;93619;-76
2022/12/20 10:11:42;;;;;;;6.00;5.50;;;12.60;99.90;;;;;;4960848;28;92568;-76
2022/12/20 10:14:49;;;;;;;7.38;3.78;;;12.60;99.90;;;;;;4961524;28;92550;-76
2022/12/20 10:17:36;;;;;;;4.28;3.88;;;12.60;99.90;;;;;;4977954;28;93310;-76
2022/12/20 10:20:19;;;;;;;5.18;3.40;;;12.50;99.90;;;;;;4977087;28;93264;-76
2022/12/20 10:22:58;;;;;;;4.15;3.80;;;12.50;99.90;;;;;;4978424;28;92914;-76
2022/12/20 10:25:31;;;;;;;4.65;3.15;;;12.50;99.90;;;;;;4978272;28;92460;-76
2022/12/20 10:28:03;;;;;;;4.93;3.90;;;12.40;99.90;;;;;;4976274;28;95715;-76
2022/12/20 10:30:32;;;;;;;5.07;3.95;;;12.40;99.90;;;;;;4976774;28;95878;-76
2022/12/20 10:32:59;;;;;;;4.63;3.60;;;12.30;99.90;;;;;;4976565;28;92566;-76
2022/12/20 10:35:30;;;;;;;4.65;3.35;;;12.40;99.90;;;;;;4976404;28;92580;-76
2022/12/20 10:37:57;;;;;;;7.30;3.88;;;12.30;99.90;;;;;;4976278;28;95581;-76
2022/12/20 10:40:46;;;;;;;5.10;3.72;;;12.30;99.90;;;;;;4977922;28;93398;-76
2022/12/20 10:43:46;;;;;;;4.75;3.40;;;12.30;99.90;;;;;;4978313;28;92835;-76
2022/12/20 10:46:17;;;;;;;5.68;3.90;;;12.30;99.90;;;;;;4977067;28;92276;-76
2022/12/20 10:48:47;;;;;;;5.45;3.80;;;12.20;99.90;;;;;;4977781;28;93224;-76
2022/12/20 10:51:20;;;;;;;5.65;4.00;;;12.20;99.90;;;;;;4977091;28;93105;-75
2022/12/20 10:54:00;;;;;;;6.25;3.97;;;12.20;99.90;;;;;;4975586;28;94902;-76
2022/12/20 10:56:37;;;;;;;6.20;4.32;;;12.20;99.90;;;;;;4977642;28;92422;-76
2022/12/20 10:59:16;;;;;;;4.72;3.60;;;12.10;99.90;;;;;;4976036;28;96483;-76
2022/12/20 11:01:46;;;;;;;4.93;4.32;;;12.10;99.90;;;;;;4976215;28;93036;-76
2022/12/20 11:04:55;;;;;;;6.25;4.07;;;12.10;99.90;;;;;;4975973;28;92435;-75
2022/12/20 11:07:27;;;;;;;4.55;4.00;;;12.10;99.90;;;;;;4975751;28;92612;-76
2022/12/20 11:09:57;;;;;;;5.07;3.85;;;12.00;99.90;;;;;;4976208;28;93600;-76
2022/12/20 11:12:25;;;;;;;4.60;4.20;;;12.00;99.90;;;;;;4977549;28;91902;-76
2022/12/20 11:15:09;;;;;;;5.93;4.40;;;12.10;99.90;;;;;;4977530;28;92491;-76
2022/12/20 11:17:45;;;;;;;5.43;4.28;;;12.20;99.90;;;;;;4977337;28;92511;-76
2022/12/20 11:20:20;;;;;;;8.15;4.45;;;12.10;99.90;;;;;;4975787;28;95959;-76
2022/12/20 11:23:16;;;;;;;5.07;3.80;;;12.20;99.90;;;;;;4975786;28;95453;-76
2022/12/20 11:26:00;;;;;;;9.00;5.03;;;12.30;99.90;;;;;;4977361;28;92752;-76
2022/12/20 11:28:50;;;;;;;4.85;3.53;;;12.20;99.90;;;;;;4975722;28;92491;-76
2022/12/20 11:31:47;;;;;;;4.47;4.07;;;12.30;99.90;;;;;;4976790;28;93314;-76
2022/12/20 11:34:41;;;;;;;6.95;4.35;;;12.30;99.90;;;;;;4975253;28;95547;-76
2022/12/20 11:37:19;;;;;;;4.18;3.50;;;12.20;99.90;;;;;;4975702;28;92511;-76
2022/12/20 11:40:01;;;;;;;5.70;3.80;;;12.20;99.90;;;;;;4976459;28;91829;-76
2022/12/20 11:42:51;;;;;;;6.10;3.83;;;12.20;99.90;;;;;;4975220;28;96044;-76
2022/12/20 11:46:01;;;;;;;5.40;4.20;;;12.20;99.90;;;;;;4975206;28;96041;-76
2022/12/20 11:48:39;;;;;;;7.35;3.95;;;12.30;99.90;;;;;;4973909;28;95423;-76
2022/12/20 11:51:23;;;;;;;13.38;8.55;;;12.20;99.90;;;;;;4975705;28;92575;-76
2022/12/20 11:54:11;;;;;;;22.17;14.85;;;12.30;99.90;;;;;;4975193;28;96235;-76
2022/12/20 11:56:44;;;;;;;4.82;3.88;;;12.20;99.90;;;;;;4975821;28;93335;-76
2022/12/20 11:59:14;;;;;;;4.33;3.83;;;12.30;99.90;;;;;;4959184;28;92555;-76
2022/12/20 12:01:59;;;;;;;4.60;4.18;;;12.20;99.90;;;;;;4976723;28;92370;-76
2022/12/20 12:04:32;;;;;;;4.22;3.83;;;12.30;99.90;;;;;;4976131;28;93284;-76
2022/12/20 12:07:12;;;;;;;6.35;3.83;;;12.30;99.90;;;;;;4977063;28;93003;-76
2022/12/20 12:09:59;;;;;;;4.20;3.80;;;12.30;99.90;;;;;;4976652;28;92944;-76
2022/12/20 12:12:32;;;;;;;6.13;4.30;;;12.30;99.90;;;;;;4958615;28;92596;-76
2022/12/20 12:15:14;;;;;;;4.55;4.00;;;12.30;99.90;;;;;;4973613;28;96686;-76
2022/12/20 12:18:01;;;;;;;4.40;3.97;;;12.40;99.90;;;;;;4974708;28;97817;-76
2022/12/20 12:20:43;;;;;;;6.60;4.25;;;12.30;99.90;;;;;;4976500;28;92803;-76
2022/12/20 12:23:21;;;;;;;4.88;4.15;;;12.30;99.90;;;;;;4976275;28;92339;-76
2022/12/20 12:25:48;;;;;;;6.10;4.70;;;12.30;99.90;;;;;;4976353;28;93173;-76
2022/12/20 12:28:18;;;;;;;4.70;4.30;;;12.30;99.90;;;;;;4976120;28;92990;-76
2022/12/20 12:30:59;;;;;;;5.60;3.72;;;12.40;99.90;;;;;;4959036;28;92549;-76
2022/12/20 12:33:36;;;;;;;5.20;3.92;;;12.40;99.90;;;;;;4976435;28;91689;-76
2022/12/20 12:36:43;;;;;;;6.40;4.18;;;12.40;99.90;;;;;;4974857;28;93064;-76
2022/12/20 12:39:38;;;;;;;4.88;4.13;;;12.40;99.90;;;;;;4976079;28;93211;-76
2022/12/20 12:42:06;;;;;;;4.47;3.90;;;12.30;99.90;;;;;;4974944;28;95345;-76
2022/12/20 12:44:57;;;;;;;5.15;4.13;;;12.20;99.90;;;;;;4958141;28;92488;-76
2022/12/20 12:47:44;;;;;;;4.40;4.05;;;12.30;99.90;;;;;;4975643;28;93157;-76
2022/12/20 12:50:28;;;;;;;4.90;4.38;;;12.30;99.90;;;;;;4975775;28;93073;-76
2022/12/20 12:53:05;;;;;;;5.93;4.53;;;12.30;99.90;;;;;;4974719;28;92436;-76
2022/12/20 12:55:44;;;;;;;5.10;4.60;;;12.30;99.90;;;;;;4975854;28;92413;-76
2022/12/20 12:58:30;;;;;;;5.60;4.80;;;12.30;99.90;;;;;;4974226;28;95892;-76
2022/12/20 13:01:08;;;;;;;5.90;5.10;;;12.40;99.90;;;;;;4974740;28;95473;-76
2022/12/20 13:03:40;;;;;;;6.25;4.82;;;12.40;99.90;;;;;;4975748;28;92483;-76
2022/12/20 13:06:24;;;;;;;5.43;4.93;;;12.40;99.90;;;;;;4958122;28;92548;-76
2022/12/20 13:09:02;;;;;;;8.25;5.38;;;12.40;99.90;;;;;;4974697;28;95686;-76
2022/12/20 13:11:41;;;;;;;5.95;5.30;;;12.40;99.90;;;;;;4975181;28;95298;-76
2022/12/20 13:14:24;;;;;;;7.20;5.00;;;12.40;99.90;;;;;;4974192;28;92576;-76
2022/12/20 13:17:03;;;;;;;7.50;5.53;;;12.30;99.90;;;;;;4974016;28;92470;-77
2022/12/20 13:19:52;;;;;;;7.00;5.38;;;12.30;99.90;;;;;;4974995;28;93257;-76
2022/12/20 13:22:22;;;;;;;6.88;6.18;;;12.30;99.90;;;;;;4975363;28;92417;-76
2022/12/20 13:25:01;;;;;;;8.40;6.07;;;12.20;99.90;;;;;;4974172;28;92562;-76
2022/12/20 13:27:46;;;;;;;7.90;5.78;;;12.20;99.90;;;;;;4976093;28;92172;-76
2022/12/20 13:30:14;;;;;;;6.25;5.65;;;12.20;99.90;;;;;;4975455;28;93303;-77